Aeroporto :







RITROVATECI SU...

 
LOGIN :

Iscrizione | Disclaimer

   EN    FR    IT 

 









Sommario :    VFR   VFR Marginale   IFR   IFR Intensivo   IFR Molto Intensivo
Visibilità : 
Base nubi : 
>= 8 km
>= 3000ft
5 / 8 km
1000 / 3000 ft
1500m / 5 km
500 / 1000 ft
800 / 1500m
200 / 500 ft
< 800m
< 200 ft
Simboli :   Temporali  Nebbia  Neve Forte  Precipitazioni Forti  Vento > 20 kt






- Altitudine del aeroporto : 215 ft
- Codice IATA : MSS


KMSS - Massena International Richards Field

ULTIMO METAR :
  • 101453Z AUTO 23006KT 10SM SCT016 25/21 A3000 RMK AO2 SLP156 T02500206 58004

METARs OBSOLETI :
  • 101353Z AUTO 19004KT 10SM FEW012 24/21 A3000 RMK AO2 SLP157 T02390206
  • 101253Z AUTO 00000KT 10SM CLR 23/20 A3001 RMK AO2 SLP161 T02280200

TAF KMSS
Valido dal 10 a 12 ore il 11 a 12 ore UTC


101136Z 1012/1112 00000KT P6SM FEW003 SCT045
FM101900 24007KT P6SM VCSH SCT060
FM102200 22007KT P6SM SCT080
FIR KZBW / America del Nord



MetMap, La meteo Aeronautica in un colpo d'occhio ! - Copyright ORBIFLY Dicembre 2007 - Disclaimer

ORBIFLY MET'MAP TEAM :

Programmazione e sviluppo : Alexandra Zaïnal
Concezione : Baudouin d'Aumeries
Aiuto per la programmazione : Marc-Olivier Méhu
Supporto tecnico e logistico : Manuel Goepfert
Aiuto per la traduzione : Arnaldo La Scala

Contatto : metmap@orbifly.com




FONTI E CREDITI :

   NOAA